sensor_id;sensor_type;location;lat;lon;timestamp;pressure;altitude;pressure_sealevel;temperature;humidity
40918;BME280;26644;50.248;19.032;2024-03-08T00:02:11;98722.13;;;-0.03;73.28
40918;BME280;26644;50.248;19.032;2024-03-08T00:05:16;98721.09;;;-0.02;72.58
40918;BME280;26644;50.248;19.032;2024-03-08T00:08:21;98722.53;;;-0.07;72.83
40918;BME280;26644;50.248;19.032;2024-03-08T00:11:28;98720.06;;;-0.08;73.04
40918;BME280;26644;50.248;19.032;2024-03-08T00:14:33;98713.41;;;-0.12;73.24
40918;BME280;26644;50.248;19.032;2024-03-08T00:17:38;98714.44;;;-0.13;73.13
40918;BME280;26644;50.248;19.032;2024-03-08T00:20:43;98713.63;;;-0.14;73.10
40918;BME280;26644;50.248;19.032;2024-03-08T00:23:47;98717.75;;;-0.18;73.13
40918;BME280;26644;50.248;19.032;2024-03-08T00:26:55;98707.97;;;-0.26;73.72
40918;BME280;26644;50.248;19.032;2024-03-08T00:30:00;98711.25;;;-0.30;73.77
40918;BME280;26644;50.248;19.032;2024-03-08T00:33:05;98707.72;;;-0.37;74.03
40918;BME280;26644;50.248;19.032;2024-03-08T00:36:09;98699.19;;;-0.41;74.41
40918;BME280;26644;50.248;19.032;2024-03-08T00:39:14;98703.75;;;-0.42;74.29
40918;BME280;26644;50.248;19.032;2024-03-08T00:42:23;98700.84;;;-0.47;74.42
40918;BME280;26644;50.248;19.032;2024-03-08T00:45:28;98702.72;;;-0.41;74.44
40918;BME280;26644;50.248;19.032;2024-03-08T00:48:32;98697.50;;;-0.42;74.27
40918;BME280;26644;50.248;19.032;2024-03-08T00:51:38;98700.22;;;-0.42;74.31
40918;BME280;26644;50.248;19.032;2024-03-08T00:54:42;98692.09;;;-0.49;74.64
40918;BME280;26644;50.248;19.032;2024-03-08T00:57:50;98695.63;;;-0.48;74.49
40918;BME280;26644;50.248;19.032;2024-03-08T01:00:54;98683.78;;;-0.47;74.69
40918;BME280;26644;50.248;19.032;2024-03-08T01:03:59;98686.69;;;-0.49;74.27
40918;BME280;26644;50.248;19.032;2024-03-08T01:07:03;98688.38;;;-0.48;74.26
40918;BME280;26644;50.248;19.032;2024-03-08T01:10:09;98689.19;;;-0.47;74.69
40918;BME280;26644;50.248;19.032;2024-03-08T01:13:16;98679.66;;;-0.50;74.71
40918;BME280;26644;50.248;19.032;2024-03-08T01:16:21;98675.91;;;-0.49;74.51
40918;BME280;26644;50.248;19.032;2024-03-08T01:19:25;98686.28;;;-0.52;74.76
40918;BME280;26644;50.248;19.032;2024-03-08T01:22:30;98671.50;;;-0.57;74.80
40918;BME280;26644;50.248;19.032;2024-03-08T01:25:34;98660.94;;;-0.58;74.94
40918;BME280;26644;50.248;19.032;2024-03-08T01:28:42;98670.72;;;-0.50;74.49
40918;BME280;26644;50.248;19.032;2024-03-08T01:31:46;98659.13;;;-0.51;74.59
40918;BME280;26644;50.248;19.032;2024-03-08T01:34:51;98652.63;;;-0.57;74.69
40918;BME280;26644;50.248;19.032;2024-03-08T01:37:55;98662.00;;;-0.52;74.79
40918;BME280;26644;50.248;19.032;2024-03-08T01:41:00;98652.03;;;-0.52;74.53
40918;BME280;26644;50.248;19.032;2024-03-08T01:44:07;98649.75;;;-0.55;74.61
40918;BME280;26644;50.248;19.032;2024-03-08T01:47:12;98637.91;;;-0.61;74.56
40918;BME280;26644;50.248;19.032;2024-03-08T01:50:18;98646.63;;;-0.59;74.79
40918;BME280;26644;50.248;19.032;2024-03-08T01:53:24;98647.44;;;-0.58;74.68
40918;BME280;26644;50.248;19.032;2024-03-08T01:56:30;98644.13;;;-0.60;74.61
40918;BME280;26644;50.248;19.032;2024-03-08T01:59:38;98644.31;;;-0.68;74.69
40918;BME280;26644;50.248;19.032;2024-03-08T02:02:46;98645.34;;;-0.69;75.06
40918;BME280;26644;50.248;19.032;2024-03-08T02:05:53;98642.66;;;-0.69;74.54
40918;BME280;26644;50.248;19.032;2024-03-08T02:09:00;98636.41;;;-0.70;75.05
40918;BME280;26644;50.248;19.032;2024-03-08T02:12:07;98643.47;;;-0.69;74.53
40918;BME280;26644;50.248;19.032;2024-03-08T02:15:16;98636.19;;;-0.75;74.71
40918;BME280;26644;50.248;19.032;2024-03-08T02:18:23;98637.63;;;-0.79;74.82
40918;BME280;26644;50.248;19.032;2024-03-08T02:21:30;98637.81;;;-0.81;75.33
40918;BME280;26644;50.248;19.032;2024-03-08T02:24:35;98637.22;;;-0.76;75.21
40918;BME280;26644;50.248;19.032;2024-03-08T02:27:39;98636.59;;;-0.78;74.83
40918;BME280;26644;50.248;19.032;2024-03-08T02:30:45;98629.28;;;-0.84;75.34
40918;BME280;26644;50.248;19.032;2024-03-08T02:33:50;98625.78;;;-0.85;75.34
40918;BME280;26644;50.248;19.032;2024-03-08T02:36:58;98622.25;;;-0.85;75.19
40918;BME280;26644;50.248;19.032;2024-03-08T02:40:03;98625.97;;;-0.86;75.21
40918;BME280;26644;50.248;19.032;2024-03-08T02:43:09;98617.66;;;-0.92;75.32
40918;BME280;26644;50.248;19.032;2024-03-08T02:46:13;98627.19;;;-0.96;75.59
40918;BME280;26644;50.248;19.032;2024-03-08T02:49:18;98621.31;;;-1.06;76.01
40918;BME280;26644;50.248;19.032;2024-03-08T02:52:25;98624.81;;;-1.12;76.16
40918;BME280;26644;50.248;19.032;2024-03-08T02:55:30;98611.13;;;-1.17;76.31
40918;BME280;26644;50.248;19.032;2024-03-08T02:58:36;98617.09;;;-1.22;76.61
40918;BME280;26644;50.248;19.032;2024-03-08T03:01:41;98618.97;;;-1.22;76.36
40918;BME280;26644;50.248;19.032;2024-03-08T03:04:45;98611.91;;;-1.24;76.56
40918;BME280;26644;50.248;19.032;2024-03-08T03:07:53;98605.88;;;-1.26;76.36
40918;BME280;26644;50.248;19.032;2024-03-08T03:10:57;98606.31;;;-1.22;76.49
40918;BME280;26644;50.248;19.032;2024-03-08T03:14:02;98603.63;;;-1.22;76.33
40918;BME280;26644;50.248;19.032;2024-03-08T03:17:08;98612.97;;;-1.18;75.92
40918;BME280;26644;50.248;19.032;2024-03-08T03:20:13;98601.56;;;-1.20;76.10
40918;BME280;26644;50.248;19.032;2024-03-08T03:23:26;98616.31;;;-1.16;75.67
40918;BME280;26644;50.248;19.032;2024-03-08T03:26:35;98614.63;;;-1.17;75.62
40918;BME280;26644;50.248;19.032;2024-03-08T03:29:40;98615.22;;;-1.21;75.57
40918;BME280;26644;50.248;19.032;2024-03-08T03:32:47;98622.06;;;-1.19;76.00
40918;BME280;26644;50.248;19.032;2024-03-08T03:35:52;98624.19;;;-1.14;75.88
40918;BME280;26644;50.248;19.032;2024-03-08T03:38:59;98625.66;;;-1.12;75.68
40918;BME280;26644;50.248;19.032;2024-03-08T03:42:11;98614.03;;;-1.12;75.56
40918;BME280;26644;50.248;19.032;2024-03-08T03:45:16;98610.50;;;-1.13;75.35
40918;BME280;26644;50.248;19.032;2024-03-08T03:48:20;98604.88;;;-1.18;75.66
40918;BME280;26644;50.248;19.032;2024-03-08T03:51:25;98617.91;;;-1.21;75.99
40918;BME280;26644;50.248;19.032;2024-03-08T03:54:32;98594.25;;;-1.33;75.81
40918;BME280;26644;50.248;19.032;2024-03-08T03:57:37;98610.88;;;-1.22;75.72
40918;BME280;26644;50.248;19.032;2024-03-08T04:00:42;98602.59;;;-1.21;75.97
40918;BME280;26644;50.248;19.032;2024-03-08T04:03:47;98598.22;;;-1.22;75.75
40918;BME280;26644;50.248;19.032;2024-03-08T04:06:51;98601.38;;;-1.18;75.75
40918;BME280;26644;50.248;19.032;2024-03-08T04:09:59;98596.59;;;-1.16;75.59
40918;BME280;26644;50.248;19.032;2024-03-08T04:13:03;98598.47;;;-1.17;75.78
40918;BME280;26644;50.248;19.032;2024-03-08T04:16:08;98594.09;;;-1.18;76.08
40918;BME280;26644;50.248;19.032;2024-03-08T04:19:12;98596.59;;;-1.16;75.85
40918;BME280;26644;50.248;19.032;2024-03-08T04:22:17;98605.13;;;-1.13;75.82
40918;BME280;26644;50.248;19.032;2024-03-08T04:25:26;98605.75;;;-1.11;76.29
40918;BME280;26644;50.248;19.032;2024-03-08T04:28:31;98601.63;;;-1.07;76.01
40918;BME280;26644;50.248;19.032;2024-03-08T04:31:36;98602.00;;;-1.10;76.39
40918;BME280;26644;50.248;19.032;2024-03-08T04:34:40;98600.41;;;-1.04;76.01
40918;BME280;26644;50.248;19.032;2024-03-08T04:37:45;98603.13;;;-0.97;75.85
40918;BME280;26644;50.248;19.032;2024-03-08T04:40:53;98597.09;;;-0.99;75.54
40918;BME280;26644;50.248;19.032;2024-03-08T04:43:57;98608.09;;;-0.94;75.55
40918;BME280;26644;50.248;19.032;2024-03-08T04:47:02;98599.00;;;-0.93;75.78
40918;BME280;26644;50.248;19.032;2024-03-08T04:50:07;98602.75;;;-0.87;75.82
40918;BME280;26644;50.248;19.032;2024-03-08T04:53:13;98604.84;;;-0.83;75.57
40918;BME280;26644;50.248;19.032;2024-03-08T04:56:21;98607.13;;;-0.80;75.19
40918;BME280;26644;50.248;19.032;2024-03-08T04:59:26;98611.72;;;-0.74;75.03
40918;BME280;26644;50.248;19.032;2024-03-08T05:02:30;98601.56;;;-0.71;75.18
40918;BME280;26644;50.248;19.032;2024-03-08T05:05:35;98607.59;;;-0.69;74.93
40918;BME280;26644;50.248;19.032;2024-03-08T05:08:39;98604.28;;;-0.65;74.81
40918;BME280;26644;50.248;19.032;2024-03-08T05:11:47;98599.13;;;-0.60;74.65
40918;BME280;26644;50.248;19.032;2024-03-08T05:14:51;98614.88;;;-0.57;74.70
40918;BME280;26644;50.248;19.032;2024-03-08T05:17:57;98602.69;;;-0.52;74.53
40918;BME280;26644;50.248;19.032;2024-03-08T05:21:01;98617.81;;;-0.45;74.53
40918;BME280;26644;50.248;19.032;2024-03-08T05:24:06;98614.97;;;-0.36;74.58
40918;BME280;26644;50.248;19.032;2024-03-08T05:27:13;98618.28;;;-0.28;73.62
40918;BME280;26644;50.248;19.032;2024-03-08T05:30:18;98619.75;;;-0.25;73.36
40918;BME280;26644;50.248;19.032;2024-03-08T05:33:23;98630.16;;;-0.22;73.14
40918;BME280;26644;50.248;19.032;2024-03-08T05:36:28;98626.41;;;-0.14;73.00
40918;BME280;26644;50.248;19.032;2024-03-08T05:39:33;98624.94;;;-0.10;73.14
40918;BME280;26644;50.248;19.032;2024-03-08T05:42:40;98632.03;;;-0.02;72.58
40918;BME280;26644;50.248;19.032;2024-03-08T05:45:44;98636.59;;;-0.03;72.30
40918;BME280;26644;50.248;19.032;2024-03-08T05:48:49;98624.34;;;0.01;72.49
40918;BME280;26644;50.248;19.032;2024-03-08T05:51:55;98629.75;;;0.08;72.18
40918;BME280;26644;50.248;19.032;2024-03-08T05:55:02;98613.78;;;0.13;71.86
40918;BME280;26644;50.248;19.032;2024-03-08T05:58:10;98636.81;;;0.22;71.33
40918;BME280;26644;50.248;19.032;2024-03-08T06:01:16;98628.50;;;0.24;71.25
40918;BME280;26644;50.248;19.032;2024-03-08T06:04:20;98625.38;;;0.34;71.33
40918;BME280;26644;50.248;19.032;2024-03-08T06:07:25;98626.44;;;0.39;70.98
40918;BME280;26644;50.248;19.032;2024-03-08T06:10:29;98627.25;;;0.40;70.20
40918;BME280;26644;50.248;19.032;2024-03-08T06:13:36;98625.81;;;0.44;70.64
40918;BME280;26644;50.248;19.032;2024-03-08T06:16:40;98624.97;;;0.50;70.22
40918;BME280;26644;50.248;19.032;2024-03-08T06:19:45;98629.56;;;0.56;69.77
40918;BME280;26644;50.248;19.032;2024-03-08T06:22:50;98639.28;;;0.57;69.41
40918;BME280;26644;50.248;19.032;2024-03-08T06:25:55;98629.56;;;0.56;69.08
40918;BME280;26644;50.248;19.032;2024-03-08T06:29:02;98631.81;;;0.59;69.66
40918;BME280;26644;50.248;19.032;2024-03-08T06:32:08;98631.81;;;0.66;69.51
40918;BME280;26644;50.248;19.032;2024-03-08T06:35:12;98636.75;;;0.83;69.10
40918;BME280;26644;50.248;19.032;2024-03-08T06:38:17;98637.38;;;0.91;67.92
40918;BME280;26644;50.248;19.032;2024-03-08T06:41:22;98635.28;;;1.00;68.14
40918;BME280;26644;50.248;19.032;2024-03-08T06:44:29;98633.38;;;1.07;67.50
40918;BME280;26644;50.248;19.032;2024-03-08T06:47:33;98624.63;;;1.19;67.44
40918;BME280;26644;50.248;19.032;2024-03-08T06:50:38;98632.69;;;1.32;67.59
40918;BME280;26644;50.248;19.032;2024-03-08T06:53:43;98624.94;;;1.36;66.50
40918;BME280;26644;50.248;19.032;2024-03-08T06:56:47;98618.09;;;1.40;66.75
40918;BME280;26644;50.248;19.032;2024-03-08T06:59:54;98633.03;;;1.42;66.65
40918;BME280;26644;50.248;19.032;2024-03-08T07:02:59;98621.88;;;1.32;66.09
40918;BME280;26644;50.248;19.032;2024-03-08T07:06:04;98618.56;;;1.23;66.69
40918;BME280;26644;50.248;19.032;2024-03-08T07:09:09;98623.97;;;1.23;66.98
40918;BME280;26644;50.248;19.032;2024-03-08T07:12:14;98615.28;;;1.08;67.02
40918;BME280;26644;50.248;19.032;2024-03-08T07:15:22;98627.94;;;1.14;67.39
40918;BME280;26644;50.248;19.032;2024-03-08T07:18:26;98618.78;;;1.22;67.36
40918;BME280;26644;50.248;19.032;2024-03-08T07:21:31;98631.63;;;1.40;66.50
40918;BME280;26644;50.248;19.032;2024-03-08T07:24:35;98625.94;;;1.48;66.51
40918;BME280;26644;50.248;19.032;2024-03-08T07:27:57;98629.00;;;1.65;66.29
40918;BME280;26644;50.248;19.032;2024-03-08T07:31:04;98631.22;;;1.75;65.20
40918;BME280;26644;50.248;19.032;2024-03-08T07:34:23;98629.22;;;1.57;65.26
40918;BME280;26644;50.248;19.032;2024-03-08T07:37:27;98625.56;;;1.38;65.38
40918;BME280;26644;50.248;19.032;2024-03-08T07:40:36;98626.63;;;1.30;65.88
40918;BME280;26644;50.248;19.032;2024-03-08T07:43:42;98636.03;;;1.21;65.90
40918;BME280;26644;50.248;19.032;2024-03-08T07:46:49;98634.34;;;1.26;66.31
40918;BME280;26644;50.248;19.032;2024-03-08T07:49:53;98633.09;;;1.29;66.12
40918;BME280;26644;50.248;19.032;2024-03-08T07:52:59;98641.41;;;1.34;66.41
40918;BME280;26644;50.248;19.032;2024-03-08T07:56:05;98637.44;;;1.37;65.77
40918;BME280;26644;50.248;19.032;2024-03-08T07:59:13;98638.06;;;1.39;65.86
40918;BME280;26644;50.248;19.032;2024-03-08T08:02:20;98642.78;;;1.50;66.58
40918;BME280;26644;50.248;19.032;2024-03-08T08:05:24;98644.66;;;1.56;65.80
40918;BME280;26644;50.248;19.032;2024-03-08T08:08:29;98636.31;;;1.58;65.51
40918;BME280;26644;50.248;19.032;2024-03-08T08:11:34;98648.69;;;1.34;65.83
40918;BME280;26644;50.248;19.032;2024-03-08T08:14:39;98640.63;;;1.20;66.25
40918;BME280;26644;50.248;19.032;2024-03-08T08:17:47;98642.94;;;1.17;66.26
40918;BME280;26644;50.248;19.032;2024-03-08T08:20:51;98635.84;;;1.16;66.72
40918;BME280;26644;50.248;19.032;2024-03-08T08:23:56;98635.47;;;1.12;66.58
40918;BME280;26644;50.248;19.032;2024-03-08T08:27:01;98641.88;;;1.18;66.41
40918;BME280;26644;50.248;19.032;2024-03-08T08:30:07;98652.56;;;0.99;66.50
40918;BME280;26644;50.248;19.032;2024-03-08T08:33:14;98636.28;;;1.13;66.71
40918;BME280;26644;50.248;19.032;2024-03-08T08:36:20;98646.22;;;1.25;66.18
40918;BME280;26644;50.248;19.032;2024-03-08T08:39:24;98641.47;;;1.14;65.59
40918;BME280;26644;50.248;19.032;2024-03-08T08:42:29;98635.63;;;1.17;65.62
40918;BME280;26644;50.248;19.032;2024-03-08T08:45:33;98637.28;;;1.18;65.72
40918;BME280;26644;50.248;19.032;2024-03-08T08:48:43;98636.88;;;1.21;66.09
40918;BME280;26644;50.248;19.032;2024-03-08T08:51:50;98647.06;;;1.19;65.70
40918;BME280;26644;50.248;19.032;2024-03-08T08:54:55;98641.66;;;1.19;65.47
40918;BME280;26644;50.248;19.032;2024-03-08T08:58:00;98636.06;;;1.14;65.22
40918;BME280;26644;50.248;19.032;2024-03-08T09:01:05;98635.22;;;1.20;65.83
40918;BME280;26644;50.248;19.032;2024-03-08T09:04:13;98647.44;;;1.36;65.50
40918;BME280;26644;50.248;19.032;2024-03-08T09:07:18;98637.16;;;1.52;65.39
40918;BME280;26644;50.248;19.032;2024-03-08T09:10:23;98631.63;;;1.79;65.07
40918;BME280;26644;50.248;19.032;2024-03-08T09:13:28;98622.25;;;1.81;63.94
40918;BME280;26644;50.248;19.032;2024-03-08T09:16:32;98621.34;;;1.87;64.20
40918;BME280;26644;50.248;19.032;2024-03-08T09:19:39;98627.03;;;1.79;63.67
40918;BME280;26644;50.248;19.032;2024-03-08T09:22:44;98627.56;;;1.94;64.20
40918;BME280;26644;50.248;19.032;2024-03-08T09:25:49;98632.38;;;2.18;63.38
40918;BME280;26644;50.248;19.032;2024-03-08T09:28:54;98629.38;;;2.33;62.94
40918;BME280;26644;50.248;19.032;2024-03-08T09:31:59;98622.19;;;2.45;62.43
40918;BME280;26644;50.248;19.032;2024-03-08T09:35:07;98621.94;;;2.47;61.93
40918;BME280;26644;50.248;19.032;2024-03-08T09:38:12;98618.91;;;2.36;61.60
40918;BME280;26644;50.248;19.032;2024-03-08T09:41:17;98625.94;;;2.44;62.28
40918;BME280;26644;50.248;19.032;2024-03-08T09:44:22;98625.59;;;2.59;62.22
40918;BME280;26644;50.248;19.032;2024-03-08T09:47:32;98626.31;;;2.73;61.24
40918;BME280;26644;50.248;19.032;2024-03-08T09:50:42;98619.75;;;2.62;61.44
40918;BME280;26644;50.248;19.032;2024-03-08T09:53:48;98626.44;;;2.59;62.14
40918;BME280;26644;50.248;19.032;2024-03-08T09:56:54;98617.13;;;2.74;61.40
40918;BME280;26644;50.248;19.032;2024-03-08T09:59:59;98613.56;;;2.73;61.01
40918;BME280;26644;50.248;19.032;2024-03-08T10:03:09;98610.84;;;2.73;61.46
40918;BME280;26644;50.248;19.032;2024-03-08T10:06:22;98619.53;;;2.82;61.02
40918;BME280;26644;50.248;19.032;2024-03-08T10:09:27;98611.25;;;2.96;61.76
40918;BME280;26644;50.248;19.032;2024-03-08T10:12:32;98613.19;;;3.07;60.27
40918;BME280;26644;50.248;19.032;2024-03-08T10:15:36;98619.97;;;3.16;59.82
40918;BME280;26644;50.248;19.032;2024-03-08T10:18:41;98620.19;;;3.33;59.69
40918;BME280;26644;50.248;19.032;2024-03-08T10:21:51;98617.84;;;3.55;58.13
40918;BME280;26644;50.248;19.032;2024-03-08T10:24:57;98621.00;;;3.71;58.33
40918;BME280;26644;50.248;19.032;2024-03-08T10:28:03;98618.47;;;3.88;58.30
40918;BME280;26644;50.248;19.032;2024-03-08T10:31:09;98619.75;;;3.97;56.96
40918;BME280;26644;50.248;19.032;2024-03-08T10:34:14;98612.38;;;4.16;57.55
40918;BME280;26644;50.248;19.032;2024-03-08T10:37:22;98608.53;;;4.48;56.12
40918;BME280;26644;50.248;19.032;2024-03-08T10:40:30;98603.44;;;4.51;55.87
40918;BME280;26644;50.248;19.032;2024-03-08T10:44:01;98601.47;;;4.70;55.75
40918;BME280;26644;50.248;19.032;2024-03-08T10:47:18;98597.31;;;4.91;56.03
40918;BME280;26644;50.248;19.032;2024-03-08T10:50:33;98594.66;;;5.08;54.94
40918;BME280;26644;50.248;19.032;2024-03-08T10:53:42;98590.88;;;5.09;53.60
40918;BME280;26644;50.248;19.032;2024-03-08T10:56:51;98587.50;;;4.90;54.32
40918;BME280;26644;50.248;19.032;2024-03-08T10:59:56;98590.72;;;4.64;54.17
40918;BME280;26644;50.248;19.032;2024-03-08T11:03:03;98586.34;;;4.63;55.22
40918;BME280;26644;50.248;19.032;2024-03-08T11:06:08;98583.00;;;4.72;54.92
40918;BME280;26644;50.248;19.032;2024-03-08T11:09:35;98586.56;;;4.73;54.57
40918;BME280;26644;50.248;19.032;2024-03-08T11:12:42;98583.97;;;4.78;54.79
40918;BME280;26644;50.248;19.032;2024-03-08T11:15:49;98580.03;;;4.74;54.07
40918;BME280;26644;50.248;19.032;2024-03-08T11:18:53;98573.66;;;4.80;54.18
40918;BME280;26644;50.248;19.032;2024-03-08T11:22:00;98561.25;;;4.84;54.20
40918;BME280;26644;50.248;19.032;2024-03-08T11:25:09;98563.69;;;4.98;54.24
40918;BME280;26644;50.248;19.032;2024-03-08T11:28:17;98561.22;;;4.96;54.17
40918;BME280;26644;50.248;19.032;2024-03-08T11:31:24;98556.72;;;4.90;54.23
40918;BME280;26644;50.248;19.032;2024-03-08T11:34:31;98548.56;;;4.90;55.31
40918;BME280;26644;50.248;19.032;2024-03-08T11:37:36;98549.41;;;4.90;54.47
40918;BME280;26644;50.248;19.032;2024-03-08T11:40:46;98549.53;;;4.96;54.49
40918;BME280;26644;50.248;19.032;2024-03-08T11:44:05;98541.50;;;4.89;54.24
40918;BME280;26644;50.248;19.032;2024-03-08T11:47:13;98539.59;;;4.89;54.56
40918;BME280;26644;50.248;19.032;2024-03-08T11:50:19;98543.94;;;5.02;54.26
40918;BME280;26644;50.248;19.032;2024-03-08T11:53:25;98535.16;;;5.12;54.09
40918;BME280;26644;50.248;19.032;2024-03-08T11:56:32;98529.66;;;5.24;53.79
40918;BME280;26644;50.248;19.032;2024-03-08T11:59:37;98530.97;;;5.21;53.08
40918;BME280;26644;50.248;19.032;2024-03-08T12:02:41;98526.44;;;5.27;53.16
40918;BME280;26644;50.248;19.032;2024-03-08T12:05:57;98517.78;;;5.42;53.37
40918;BME280;26644;50.248;19.032;2024-03-08T12:09:01;98513.84;;;5.50;53.40
40918;BME280;26644;50.248;19.032;2024-03-08T12:12:09;98514.06;;;5.48;52.16
40918;BME280;26644;50.248;19.032;2024-03-08T12:15:15;98514.56;;;5.45;52.29
40918;BME280;26644;50.248;19.032;2024-03-08T12:18:20;98508.84;;;5.47;52.19
40918;BME280;26644;50.248;19.032;2024-03-08T12:21:26;98513.09;;;5.54;51.86
40918;BME280;26644;50.248;19.032;2024-03-08T12:24:31;98507.75;;;5.59;52.10
40918;BME280;26644;50.248;19.032;2024-03-08T12:27:42;98503.44;;;5.64;51.67
40918;BME280;26644;50.248;19.032;2024-03-08T12:30:49;98501.63;;;5.69;51.65
40918;BME280;26644;50.248;19.032;2024-03-08T12:33:55;98495.22;;;5.75;51.24
40918;BME280;26644;50.248;19.032;2024-03-08T12:37:00;98491.88;;;5.73;51.18
40918;BME280;26644;50.248;19.032;2024-03-08T12:40:09;98479.03;;;5.69;50.74
40918;BME280;26644;50.248;19.032;2024-03-08T12:43:21;98472.00;;;5.73;50.94
40918;BME280;26644;50.248;19.032;2024-03-08T12:46:25;98472.75;;;5.85;51.14
40918;BME280;26644;50.248;19.032;2024-03-08T12:49:31;98487.28;;;5.91;50.29
40918;BME280;26644;50.248;19.032;2024-03-08T12:52:36;98483.91;;;5.84;50.57
40918;BME280;26644;50.248;19.032;2024-03-08T12:55:41;98474.66;;;5.85;49.95
40918;BME280;26644;50.248;19.032;2024-03-08T12:58:48;98475.56;;;5.90;49.75
40918;BME280;26644;50.248;19.032;2024-03-08T13:01:55;98461.63;;;5.87;50.03
40918;BME280;26644;50.248;19.032;2024-03-08T13:05:00;98460.88;;;5.91;50.01
40918;BME280;26644;50.248;19.032;2024-03-08T13:08:06;98465.25;;;5.92;50.33
40918;BME280;26644;50.248;19.032;2024-03-08T13:11:13;98460.78;;;6.03;49.97
40918;BME280;26644;50.248;19.032;2024-03-08T13:14:21;98460.09;;;6.13;49.75
40918;BME280;26644;50.248;19.032;2024-03-08T13:17:25;98458.78;;;6.16;49.20
40918;BME280;26644;50.248;19.032;2024-03-08T13:20:31;98449.84;;;6.20;49.82
40918;BME280;26644;50.248;19.032;2024-03-08T13:23:38;98450.09;;;6.19;49.47
40918;BME280;26644;50.248;19.032;2024-03-08T13:26:47;98452.59;;;6.20;49.22
40918;BME280;26644;50.248;19.032;2024-03-08T13:29:54;98443.81;;;6.18;49.78
40918;BME280;26644;50.248;19.032;2024-03-08T13:32:59;98438.09;;;6.20;49.29
40918;BME280;26644;50.248;19.032;2024-03-08T13:36:06;98431.41;;;6.27;49.58
40918;BME280;26644;50.248;19.032;2024-03-08T13:39:16;98440.50;;;6.33;49.11
40918;BME280;26644;50.248;19.032;2024-03-08T13:42:21;98430.34;;;6.28;48.87
40918;BME280;26644;50.248;19.032;2024-03-08T13:45:29;98427.94;;;6.32;50.41
40918;BME280;26644;50.248;19.032;2024-03-08T13:48:34;98423.03;;;6.34;50.73
40918;BME280;26644;50.248;19.032;2024-03-08T13:51:39;98419.56;;;6.39;50.51
40918;BME280;26644;50.248;19.032;2024-03-08T13:54:43;98419.72;;;6.49;50.89
40918;BME280;26644;50.248;19.032;2024-03-08T13:57:49;98421.34;;;6.50;49.43
40918;BME280;26644;50.248;19.032;2024-03-08T14:00:56;98416.47;;;6.52;49.61
40918;BME280;26644;50.248;19.032;2024-03-08T14:04:02;98417.16;;;6.65;50.08
40918;BME280;26644;50.248;19.032;2024-03-08T14:07:09;98423.00;;;6.73;50.32
40918;BME280;26644;50.248;19.032;2024-03-08T14:10:15;98409.63;;;6.72;49.75
40918;BME280;26644;50.248;19.032;2024-03-08T14:13:23;98412.09;;;6.73;50.25
40918;BME280;26644;50.248;19.032;2024-03-08T14:16:31;98407.66;;;6.67;50.43
40918;BME280;26644;50.248;19.032;2024-03-08T14:19:37;98416.28;;;6.59;50.80
40918;BME280;26644;50.248;19.032;2024-03-08T14:22:43;98415.47;;;6.58;50.49
40918;BME280;26644;50.248;19.032;2024-03-08T14:25:49;98401.50;;;6.55;50.83
40918;BME280;26644;50.248;19.032;2024-03-08T14:28:55;98408.63;;;6.56;50.70
40918;BME280;26644;50.248;19.032;2024-03-08T14:32:02;98405.56;;;6.52;50.89
40918;BME280;26644;50.248;19.032;2024-03-08T14:35:08;98407.41;;;6.47;51.11
40918;BME280;26644;50.248;19.032;2024-03-08T14:38:12;98397.81;;;6.44;51.42
40918;BME280;26644;50.248;19.032;2024-03-08T14:41:19;98404.09;;;6.44;52.02
40918;BME280;26644;50.248;19.032;2024-03-08T14:44:24;98405.69;;;6.40;51.82
40918;BME280;26644;50.248;19.032;2024-03-08T14:47:34;98402.63;;;6.37;52.10
40918;BME280;26644;50.248;19.032;2024-03-08T14:50:39;98398.44;;;6.29;52.39
40918;BME280;26644;50.248;19.032;2024-03-08T14:53:45;98397.63;;;6.28;52.37
40918;BME280;26644;50.248;19.032;2024-03-08T14:56:50;98399.28;;;6.30;52.66
40918;BME280;26644;50.248;19.032;2024-03-08T14:59:58;98395.41;;;6.25;53.17
40918;BME280;26644;50.248;19.032;2024-03-08T15:03:09;98392.94;;;6.24;53.16
40918;BME280;26644;50.248;19.032;2024-03-08T15:06:18;98385.56;;;6.24;53.00
40918;BME280;26644;50.248;19.032;2024-03-08T15:09:22;98385.75;;;6.18;53.13
40918;BME280;26644;50.248;19.032;2024-03-08T15:12:27;98379.09;;;6.08;53.52
40918;BME280;26644;50.248;19.032;2024-03-08T15:15:31;98388.59;;;6.06;53.64
40918;BME280;26644;50.248;19.032;2024-03-08T15:18:39;98379.81;;;6.04;53.58
40918;BME280;26644;50.248;19.032;2024-03-08T15:21:47;98386.03;;;5.99;54.11
40918;BME280;26644;50.248;19.032;2024-03-08T15:24:55;98377.97;;;5.87;54.14
40918;BME280;26644;50.248;19.032;2024-03-08T15:28:00;98374.25;;;5.93;54.54
40918;BME280;26644;50.248;19.032;2024-03-08T15:31:06;98375.47;;;6.03;54.33
40918;BME280;26644;50.248;19.032;2024-03-08T15:34:14;98374.88;;;6.01;54.60
40918;BME280;26644;50.248;19.032;2024-03-08T15:37:20;98375.06;;;5.94;54.62
40918;BME280;26644;50.248;19.032;2024-03-08T15:40:26;98370.94;;;5.91;55.05
40918;BME280;26644;50.248;19.032;2024-03-08T15:43:32;98370.53;;;5.83;54.84
40918;BME280;26644;50.248;19.032;2024-03-08T15:46:38;98371.13;;;5.68;55.33
40918;BME280;26644;50.248;19.032;2024-03-08T15:49:46;98377.34;;;5.63;55.79
40918;BME280;26644;50.248;19.032;2024-03-08T15:52:50;98372.88;;;5.57;56.14
40918;BME280;26644;50.248;19.032;2024-03-08T15:55:56;98378.81;;;5.54;56.18
40918;BME280;26644;50.248;19.032;2024-03-08T15:59:00;98373.28;;;5.49;56.20
40918;BME280;26644;50.248;19.032;2024-03-08T16:02:08;98367.16;;;5.41;56.46
40918;BME280;26644;50.248;19.032;2024-03-08T16:05:16;98363.78;;;5.34;56.82
40918;BME280;26644;50.248;19.032;2024-03-08T16:08:21;98371.88;;;5.29;57.08
40918;BME280;26644;50.248;19.032;2024-03-08T16:11:25;98375.00;;;5.21;57.11
40918;BME280;26644;50.248;19.032;2024-03-08T16:14:36;98369.13;;;5.12;57.77
40918;BME280;26644;50.248;19.032;2024-03-08T16:17:41;98372.00;;;5.05;57.57
40918;BME280;26644;50.248;19.032;2024-03-08T16:20:49;98371.81;;;4.95;57.94
40918;BME280;26644;50.248;19.032;2024-03-08T16:23:54;98373.88;;;4.88;58.58